createdAt,value
2022-10-26T00:01:12.391Z,21.72
2022-10-26T00:06:14.282Z,21.63
2022-10-26T00:11:08.519Z,21.74
2022-10-26T00:16:03.311Z,21.73
2022-10-26T00:21:02.710Z,21.75
2022-10-26T00:25:57.267Z,21.74
2022-10-26T00:30:51.001Z,21.71
2022-10-26T00:35:46.257Z,21.74
2022-10-26T00:40:40.951Z,21.61
2022-10-26T00:45:35.636Z,21.74
2022-10-26T00:50:33.874Z,21.74
2022-10-26T00:55:33.235Z,21.74
2022-10-26T01:00:26.406Z,21.61
2022-10-26T01:05:20.971Z,21.73
2022-10-26T01:10:14.155Z,21.75
2022-10-26T01:15:09.140Z,21.75
2022-10-26T01:20:36.184Z,21.74
2022-10-26T01:25:44.764Z,21.60
2022-10-26T01:30:45.361Z,21.60
2022-10-26T01:36:02.673Z,21.72
2022-10-26T01:41:11.768Z,21.60
2022-10-26T01:46:08.011Z,21.58
2022-10-26T01:51:05.686Z,21.71
2022-10-26T01:56:00.953Z,21.70
2022-10-26T02:01:10.041Z,21.68
2022-10-26T02:06:19.347Z,21.59
2022-10-26T02:11:31.111Z,21.70
2022-10-26T02:16:57.299Z,21.68
2022-10-26T02:21:58.670Z,21.59
2022-10-26T02:26:54.193Z,21.57
2022-10-26T02:31:50.142Z,21.71
2022-10-26T02:36:48.060Z,21.71
2022-10-26T02:41:42.584Z,21.57
2022-10-26T02:46:36.598Z,21.70
2022-10-26T02:51:58.906Z,21.69
2022-10-26T02:57:06.528Z,21.70
2022-10-26T03:02:01.052Z,21.48
2022-10-26T03:06:55.164Z,21.57
2022-10-26T03:11:49.050Z,21.48
2022-10-26T03:16:42.111Z,21.48
2022-10-26T03:21:35.639Z,21.60
2022-10-26T03:26:28.119Z,21.69
2022-10-26T03:31:21.941Z,21.69
2022-10-26T03:36:15.449Z,21.57
2022-10-26T03:41:09.123Z,21.69
2022-10-26T03:46:04.343Z,21.66
2022-10-26T03:51:00.348Z,21.68
2022-10-26T03:55:53.652Z,21.59
2022-10-26T04:00:48.885Z,21.67
2022-10-26T04:05:41.853Z,21.67
2022-10-26T04:10:35.221Z,21.59
2022-10-26T04:15:30.324Z,21.55
2022-10-26T04:20:23.469Z,21.55
2022-10-26T04:25:17.753Z,21.64
2022-10-26T04:30:12.090Z,21.55
2022-10-26T04:35:09.173Z,21.62
2022-10-26T04:40:03.323Z,21.66
2022-10-26T04:45:00.870Z,21.55
2022-10-26T04:49:54.342Z,21.63
2022-10-26T04:54:47.605Z,21.61
2022-10-26T04:59:41.427Z,21.62
2022-10-26T05:04:34.932Z,21.61
2022-10-26T05:09:28.757Z,21.62
2022-10-26T05:14:22.658Z,21.61
2022-10-26T05:19:16.408Z,21.37
2022-10-26T05:24:12.491Z,21.52
2022-10-26T05:29:09.888Z,21.47
2022-10-26T05:34:04.608Z,21.22
2022-10-26T05:39:01.019Z,21.31
2022-10-26T05:43:53.998Z,21.34
2022-10-26T05:48:46.971Z,21.40
2022-10-26T05:53:40.436Z,21.41
2022-10-26T05:58:35.128Z,21.31
2022-10-26T06:03:33.983Z,21.22
2022-10-26T06:08:30.518Z,21.18
2022-10-26T06:13:23.992Z,21.39
2022-10-26T06:18:20.056Z,21.36
2022-10-26T06:23:46.558Z,21.19
2022-10-26T06:28:47.282Z,21.30
2022-10-26T06:33:45.028Z,21.23
2022-10-26T06:38:44.928Z,21.08
2022-10-26T06:43:39.521Z,21.18
2022-10-26T06:48:50.035Z,21.18
2022-10-26T06:54:03.860Z,21.08
2022-10-26T06:59:04.722Z,21.10
2022-10-26T07:04:00.638Z,21.12
2022-10-26T07:08:54.195Z,21.26
2022-10-26T07:13:50.973Z,21.13
2022-10-26T07:18:44.081Z,21.14
2022-10-26T07:23:37.618Z,21.22
2022-10-26T07:28:31.669Z,21.13
2022-10-26T07:33:24.957Z,21.16
2022-10-26T07:38:18.678Z,21.10
2022-10-26T07:43:12.759Z,21.23
2022-10-26T07:48:07.938Z,21.16
2022-10-26T07:53:01.475Z,21.28
2022-10-26T07:57:56.756Z,21.18
2022-10-26T08:02:49.958Z,21.20
2022-10-26T08:07:45.205Z,21.37
2022-10-26T08:12:39.160Z,21.39
2022-10-26T08:17:32.346Z,21.27
2022-10-26T08:22:26.328Z,21.42
2022-10-26T08:27:19.637Z,21.20
2022-10-26T08:32:12.822Z,21.39
2022-10-26T08:37:06.162Z,21.38
2022-10-26T08:42:23.296Z,21.20
2022-10-26T08:47:38.835Z,21.33
2022-10-26T08:52:39.234Z,21.35
2022-10-26T08:57:37.888Z,21.36
2022-10-26T09:02:35.926Z,21.23
2022-10-26T09:07:47.442Z,21.38
2022-10-26T09:12:49.321Z,21.39
2022-10-26T09:18:19.271Z,21.39
2022-10-26T09:23:32.948Z,21.42
2022-10-26T09:28:29.974Z,21.42
2022-10-26T09:33:25.587Z,21.41
2022-10-26T09:38:41.466Z,21.41
2022-10-26T09:49:09.248Z,21.43
2022-10-26T09:54:03.660Z,21.31
2022-10-26T09:59:06.174Z,21.45
2022-10-26T10:04:13.876Z,21.47
2022-10-26T10:09:18.362Z,21.37
2022-10-26T10:14:18.710Z,21.36
2022-10-26T10:19:24.026Z,21.39
2022-10-26T10:24:54.715Z,21.50
2022-10-26T10:30:07.406Z,21.48
2022-10-26T10:35:01.171Z,21.26
2022-10-26T10:39:59.379Z,21.38
2022-10-26T10:44:54.646Z,21.38
2022-10-26T10:49:59.289Z,21.45
2022-10-26T10:55:01.352Z,21.52
2022-10-26T11:00:04.132Z,21.53
2022-10-26T11:05:23.303Z,21.55
2022-10-26T11:10:23.227Z,21.45
2022-10-26T11:15:24.702Z,21.42
2022-10-26T11:20:22.063Z,21.58
2022-10-26T11:25:29.077Z,21.57
2022-10-26T11:30:26.677Z,21.53
2022-10-26T11:35:29.397Z,21.55
2022-10-26T11:40:43.868Z,21.44
2022-10-26T11:45:42.941Z,21.49
2022-10-26T11:50:42.589Z,21.40
2022-10-26T11:55:36.432Z,21.45
2022-10-26T12:00:31.781Z,21.42
2022-10-26T12:05:55.028Z,21.53
2022-10-26T12:10:58.394Z,21.41
2022-10-26T12:16:04.011Z,21.53
2022-10-26T12:21:03.413Z,21.54
2022-10-26T12:26:38.375Z,21.53
2022-10-26T12:31:37.377Z,21.56
2022-10-26T12:36:56.438Z,21.56
2022-10-26T12:41:58.362Z,21.42
2022-10-26T12:46:52.283Z,21.46
2022-10-26T12:51:46.809Z,21.45
2022-10-26T12:57:22.511Z,21.57
2022-10-26T13:02:40.331Z,21.59
2022-10-26T13:07:39.446Z,21.57
2022-10-26T13:12:54.649Z,21.60
2022-10-26T13:18:36.984Z,21.60
2022-10-26T13:23:33.323Z,21.61
2022-10-26T13:29:01.751Z,21.60
2022-10-26T13:34:25.019Z,21.59
2022-10-26T13:39:23.852Z,21.49
2022-10-26T13:44:42.917Z,21.60
2022-10-26T13:49:53.078Z,21.57
2022-10-26T13:55:05.088Z,21.47
2022-10-26T14:00:21.772Z,21.58
2022-10-26T14:05:36.261Z,21.57
2022-10-26T14:10:59.801Z,21.57
2022-10-26T14:16:17.445Z,21.59
2022-10-26T14:21:36.918Z,21.45
2022-10-26T14:26:39.185Z,21.50
2022-10-26T14:31:38.793Z,21.46
2022-10-26T14:36:37.670Z,21.48
2022-10-26T14:41:32.201Z,21.59
2022-10-26T14:46:26.037Z,21.60
2022-10-26T14:51:41.400Z,21.60
2022-10-26T14:56:37.335Z,21.61
2022-10-26T15:01:35.771Z,21.53
2022-10-26T15:06:28.770Z,21.61
2022-10-26T15:11:22.709Z,21.40
2022-10-26T15:16:24.467Z,21.62
2022-10-26T15:21:40.704Z,21.62
2022-10-26T15:26:34.590Z,21.62
2022-10-26T15:31:33.709Z,21.48
2022-10-26T15:36:29.174Z,21.62
2022-10-26T15:41:30.716Z,21.62
2022-10-26T15:46:25.047Z,21.48
2022-10-26T15:51:18.869Z,21.49
2022-10-26T15:56:26.361Z,21.63
2022-10-26T16:01:42.154Z,21.63
2022-10-26T16:06:36.543Z,21.48
2022-10-26T16:11:30.252Z,21.64
2022-10-26T16:16:23.028Z,21.60
2022-10-26T16:21:17.558Z,21.67
2022-10-26T16:26:11.444Z,21.76
2022-10-26T16:31:11.006Z,21.80
2022-10-26T16:36:05.526Z,21.72
2022-10-26T16:41:10.483Z,21.74
2022-10-26T16:46:14.685Z,21.84
2022-10-26T16:51:13.005Z,21.90
2022-10-26T16:56:16.149Z,21.79
2022-10-26T17:01:10.659Z,21.84
2022-10-26T17:06:06.553Z,21.85
2022-10-26T17:11:12.120Z,21.97
2022-10-26T17:16:11.534Z,21.90
2022-10-26T17:21:05.959Z,21.99
2022-10-26T17:26:03.605Z,22.01
2022-10-26T17:31:23.667Z,22.04
2022-10-26T17:36:21.750Z,21.92
2022-10-26T17:41:16.603Z,21.93
2022-10-26T17:46:29.641Z,22.02
2022-10-26T17:51:23.704Z,21.98
2022-10-26T17:56:37.757Z,21.98
2022-10-26T18:01:31.862Z,21.76
2022-10-26T18:06:26.040Z,21.89
2022-10-26T18:11:26.558Z,21.81
2022-10-26T18:16:22.280Z,21.95
2022-10-26T18:21:16.384Z,21.95
2022-10-26T18:26:21.126Z,21.84
2022-10-26T18:31:21.126Z,21.92
2022-10-26T18:36:20.437Z,21.84
2022-10-26T18:41:16.480Z,21.91
2022-10-26T18:46:14.097Z,21.87
2022-10-26T18:51:15.593Z,21.68
2022-10-26T18:56:15.030Z,21.70
2022-10-26T19:01:23.032Z,21.72
2022-10-26T19:06:28.479Z,21.76
2022-10-26T19:11:25.226Z,21.74
2022-10-26T19:16:40.598Z,21.80
2022-10-26T19:21:33.447Z,21.78
2022-10-26T19:26:37.802Z,21.77
2022-10-26T19:31:33.244Z,21.90
2022-10-26T19:36:27.304Z,21.94
2022-10-26T19:41:23.219Z,21.82
2022-10-26T19:46:20.194Z,21.95
2022-10-26T19:51:14.043Z,21.95
2022-10-26T19:56:12.472Z,21.81
2022-10-26T20:01:05.820Z,21.93
2022-10-26T20:06:01.732Z,21.86
2022-10-26T20:10:58.020Z,21.87
2022-10-26T20:15:52.757Z,21.85
2022-10-26T20:20:45.591Z,21.97
2022-10-26T20:25:45.089Z,21.97
2022-10-26T20:30:39.444Z,21.97
2022-10-26T20:35:33.956Z,21.81
2022-10-26T20:40:29.526Z,21.96
2022-10-26T20:45:33.452Z,21.83
2022-10-26T20:50:31.260Z,21.85
2022-10-26T20:55:39.741Z,21.97
2022-10-26T21:00:42.067Z,21.76
2022-10-26T21:05:59.064Z,21.98
2022-10-26T21:10:53.527Z,21.97
2022-10-26T21:15:51.070Z,21.98
2022-10-26T21:20:44.380Z,21.97
2022-10-26T21:25:42.585Z,21.85
2022-10-26T21:30:36.587Z,21.97
2022-10-26T21:35:29.560Z,21.98
2022-10-26T21:40:22.594Z,21.86
2022-10-26T21:45:15.674Z,21.86
2022-10-26T21:50:10.041Z,21.87
2022-10-26T21:55:04.086Z,21.80
2022-10-26T21:59:58.522Z,21.97
2022-10-26T22:04:52.181Z,21.96
2022-10-26T22:10:00.331Z,21.98
2022-10-26T22:14:59.414Z,21.96
2022-10-26T22:19:53.235Z,21.74
2022-10-26T22:24:47.129Z,21.97
2022-10-26T22:29:41.619Z,21.85
2022-10-26T22:34:34.970Z,21.97
2022-10-26T22:39:29.182Z,21.84
2022-10-26T22:44:22.836Z,21.96
2022-10-26T22:49:15.940Z,21.86
2022-10-26T22:54:09.749Z,21.97
2022-10-26T22:59:03.735Z,21.96
2022-10-26T23:03:57.023Z,21.97
2022-10-26T23:08:50.357Z,21.96
2022-10-26T23:13:44.567Z,21.95
2022-10-26T23:18:38.379Z,21.94
2022-10-26T23:23:31.968Z,21.88
2022-10-26T23:28:25.203Z,21.91
2022-10-26T23:33:19.267Z,21.91
2022-10-26T23:38:12.118Z,21.85
2022-10-26T23:43:05.565Z,21.77
2022-10-26T23:47:59.446Z,21.75
2022-10-26T23:52:53.416Z,21.91
2022-10-26T23:57:47.458Z,21.76
